createdAt,value
2023-04-18T00:01:18.713Z,3.63
2023-04-18T00:04:22.072Z,4.53
2023-04-18T00:07:25.626Z,4.03
2023-04-18T00:10:28.451Z,4.22
2023-04-18T00:13:31.261Z,3.90
2023-04-18T00:16:33.996Z,4.00
2023-04-18T00:19:38.622Z,3.97
2023-04-18T00:22:42.901Z,4.20
2023-04-18T00:25:45.748Z,3.55
2023-04-18T00:28:48.477Z,4.10
2023-04-18T00:31:51.205Z,3.57
2023-04-18T00:34:53.750Z,3.90
2023-04-18T00:37:56.493Z,4.00
2023-04-18T00:40:59.209Z,3.80
2023-04-18T00:44:01.967Z,4.00
2023-04-18T00:47:04.594Z,4.00
2023-04-18T00:50:09.939Z,3.97
2023-04-18T00:53:13.661Z,4.10
2023-04-18T00:56:16.315Z,3.40
2023-04-18T00:59:19.104Z,3.80
2023-04-18T01:02:22.376Z,3.47
2023-04-18T01:05:25.301Z,4.07
2023-04-18T01:08:28.122Z,3.38
2023-04-18T01:11:33.804Z,3.58
2023-04-18T01:14:36.705Z,3.80
2023-04-18T01:17:39.811Z,3.60
2023-04-18T01:20:48.877Z,3.50
2023-04-18T01:23:52.920Z,3.47
2023-04-18T01:26:55.593Z,3.50
2023-04-18T01:29:58.443Z,3.67
2023-04-18T01:33:04.149Z,3.40
2023-04-18T01:36:06.855Z,3.30
2023-04-18T01:39:09.625Z,3.75
2023-04-18T01:42:12.496Z,3.67
2023-04-18T01:45:16.627Z,3.72
2023-04-18T01:48:19.302Z,3.40
2023-04-18T01:51:22.056Z,3.80
2023-04-18T01:54:24.794Z,3.40
2023-04-18T01:57:28.966Z,3.40
2023-04-18T02:00:31.603Z,3.53
2023-04-18T02:03:34.495Z,3.33
2023-04-18T02:06:37.353Z,3.42
2023-04-18T02:09:39.842Z,3.30
2023-04-18T02:12:43.190Z,3.40
2023-04-18T02:15:46.168Z,3.50
2023-04-18T02:18:52.949Z,3.60
2023-04-18T02:21:55.922Z,3.40
2023-04-18T02:24:58.698Z,3.50
2023-04-18T02:28:01.244Z,3.40
2023-04-18T02:31:07.502Z,3.28
2023-04-18T02:34:10.737Z,3.40
2023-04-18T02:37:13.278Z,3.58
2023-04-18T02:40:16.241Z,3.42
2023-04-18T02:43:18.800Z,3.40
2023-04-18T02:46:21.398Z,3.28
2023-04-18T02:49:24.937Z,3.20
2023-04-18T02:52:27.657Z,3.05
2023-04-18T02:55:30.381Z,3.17
2023-04-18T02:58:36.477Z,3.50
2023-04-18T03:02:05.422Z,3.42
2023-04-18T03:05:10.351Z,3.47
2023-04-18T03:08:14.187Z,3.38
2023-04-18T03:11:16.948Z,2.95
2023-04-18T03:14:20.598Z,3.20
2023-04-18T03:17:27.747Z,3.30
2023-04-18T03:20:30.637Z,3.30
2023-04-18T03:23:33.775Z,3.20
2023-04-18T03:26:39.429Z,3.33
2023-04-18T03:29:42.841Z,3.17
2023-04-18T03:32:49.027Z,2.83
2023-04-18T03:35:52.037Z,3.40
2023-04-18T03:38:55.450Z,3.10
2023-04-18T03:41:59.225Z,3.20
2023-04-18T03:45:02.133Z,3.00
2023-04-18T03:48:07.410Z,3.20
2023-04-18T03:51:14.716Z,2.90
2023-04-18T03:54:18.143Z,3.30
2023-04-18T03:57:20.753Z,3.20
2023-04-18T04:00:23.477Z,3.13
2023-04-18T04:03:33.875Z,3.22
2023-04-18T04:06:36.781Z,3.23
2023-04-18T04:09:39.949Z,3.13
2023-04-18T04:12:42.664Z,3.00
2023-04-18T04:15:45.625Z,3.10
2023-04-18T04:18:48.660Z,3.17
2023-04-18T04:21:51.403Z,2.63
2023-04-18T04:24:54.377Z,3.15
2023-04-18T04:28:03.458Z,3.35
2023-04-18T04:31:11.482Z,2.80
2023-04-18T04:34:16.970Z,3.17
2023-04-18T04:37:19.798Z,3.10
2023-04-18T04:40:35.996Z,2.75
2023-04-18T04:43:47.138Z,3.05
2023-04-18T04:46:54.541Z,2.75
2023-04-18T04:50:01.442Z,3.00
2023-04-18T04:53:07.752Z,2.80
2023-04-18T04:56:11.133Z,3.03
2023-04-18T04:59:15.333Z,3.20
2023-04-18T05:02:23.352Z,2.80
2023-04-18T05:05:26.202Z,2.92
2023-04-18T05:08:31.163Z,2.63
2023-04-18T05:11:34.128Z,3.03
2023-04-18T05:14:36.862Z,2.88
2023-04-18T05:17:39.468Z,3.22
2023-04-18T05:20:42.068Z,2.95
2023-04-18T05:23:44.613Z,3.20
2023-04-18T05:26:47.334Z,3.08
2023-04-18T05:29:51.081Z,3.60
2023-04-18T05:32:53.818Z,2.83
2023-04-18T05:35:56.777Z,2.90
2023-04-18T05:38:59.835Z,2.90
2023-04-18T05:42:02.912Z,3.13
2023-04-18T05:45:06.158Z,3.20
2023-04-18T05:48:08.790Z,2.92
2023-04-18T05:51:11.818Z,2.70
2023-04-18T05:54:14.603Z,2.63
2023-04-18T05:57:17.474Z,3.17
2023-04-18T06:00:20.372Z,3.03
2023-04-18T06:03:23.753Z,2.92
2023-04-18T06:06:27.426Z,2.80
2023-04-18T06:09:30.139Z,2.77
2023-04-18T06:12:33.266Z,2.95
2023-04-18T06:15:35.856Z,2.75
2023-04-18T06:18:39.277Z,2.72
2023-04-18T06:21:42.926Z,2.80
2023-04-18T06:24:46.611Z,2.73
2023-04-18T06:27:49.311Z,2.70
2023-04-18T06:30:52.006Z,2.92
2023-04-18T06:33:54.726Z,2.60
2023-04-18T06:36:57.357Z,2.65
2023-04-18T06:39:59.868Z,2.60
2023-04-18T06:43:03.580Z,2.53
2023-04-18T06:46:06.643Z,2.72
2023-04-18T06:49:09.930Z,2.63
2023-04-18T06:52:12.948Z,2.88
2023-04-18T06:55:15.979Z,2.70
2023-04-18T06:58:18.872Z,2.40
2023-04-18T07:01:21.725Z,2.30
2023-04-18T07:04:27.157Z,2.70
2023-04-18T07:07:30.026Z,3.08
2023-04-18T07:10:33.384Z,2.77
2023-04-18T07:13:36.459Z,2.60
2023-04-18T07:16:39.158Z,2.47
2023-04-18T07:19:41.890Z,2.30
2023-04-18T07:22:44.556Z,3.13
2023-04-18T07:25:47.584Z,2.30
2023-04-18T07:28:50.376Z,2.55
2023-04-18T07:31:53.124Z,2.00
2023-04-18T07:34:57.618Z,2.30
2023-04-18T07:38:01.286Z,2.20
2023-04-18T07:41:04.221Z,2.30
2023-04-18T07:44:07.011Z,2.33
2023-04-18T07:47:12.315Z,2.03
2023-04-18T07:50:15.164Z,2.45
2023-04-18T07:53:17.784Z,2.50
2023-04-18T07:56:23.492Z,2.30
2023-04-18T07:59:31.805Z,2.20
2023-04-18T08:02:35.509Z,2.50
2023-04-18T08:05:48.126Z,2.90
2023-04-18T08:08:52.892Z,2.53
2023-04-18T08:11:56.942Z,2.30
2023-04-18T08:14:59.732Z,2.58
2023-04-18T08:18:02.602Z,2.33
2023-04-18T08:21:05.833Z,2.53
2023-04-18T08:24:08.877Z,2.25
2023-04-18T08:27:11.811Z,2.13
2023-04-18T08:30:16.121Z,2.50
2023-04-18T08:33:19.190Z,2.30
2023-04-18T08:36:22.003Z,2.25
2023-04-18T08:39:25.385Z,2.30
2023-04-18T08:42:28.068Z,2.40
2023-04-18T08:45:31.508Z,2.33
2023-04-18T08:48:34.033Z,2.30
2023-04-18T08:51:40.032Z,2.15
2023-04-18T08:54:44.290Z,2.40
2023-04-18T08:57:47.710Z,2.70
2023-04-18T09:00:53.017Z,2.25
2023-04-18T09:03:56.846Z,2.67
2023-04-18T09:06:59.587Z,2.90
2023-04-18T09:10:02.681Z,2.97
2023-04-18T09:13:08.236Z,2.40
2023-04-18T09:16:13.525Z,2.67
2023-04-18T09:19:21.518Z,2.63
2023-04-18T09:22:26.388Z,2.55
2023-04-18T09:25:41.594Z,2.40
2023-04-18T09:28:53.968Z,2.70
2023-04-18T09:32:01.448Z,2.40
2023-04-18T09:35:06.009Z,2.20
2023-04-18T09:38:08.814Z,2.00
2023-04-18T09:41:13.208Z,2.50
2023-04-18T09:44:23.539Z,2.30
2023-04-18T09:47:28.301Z,2.85
2023-04-18T09:50:32.885Z,2.67
2023-04-18T09:53:45.257Z,2.38
2023-04-18T09:56:50.886Z,2.70
2023-04-18T10:00:10.828Z,2.27
2023-04-18T10:03:18.709Z,2.90
2023-04-18T10:06:22.506Z,2.53
2023-04-18T10:09:25.549Z,2.40
2023-04-18T10:12:28.453Z,2.25
2023-04-18T10:15:32.141Z,2.27
2023-04-18T10:18:43.412Z,2.30
2023-04-18T10:22:13.351Z,2.60
2023-04-18T10:25:39.325Z,2.50
2023-04-18T10:28:59.007Z,2.15
2023-04-18T10:32:07.849Z,2.43
2023-04-18T10:35:11.320Z,2.35
2023-04-18T10:38:17.378Z,2.28
2023-04-18T10:41:20.049Z,2.13
2023-04-18T10:44:23.753Z,2.53
2023-04-18T10:47:26.652Z,2.60
2023-04-18T10:50:30.364Z,2.33
2023-04-18T10:53:33.780Z,2.50
2023-04-18T10:56:36.790Z,2.20
2023-04-18T10:59:42.313Z,2.95
2023-04-18T11:02:50.682Z,2.50
2023-04-18T11:06:02.229Z,2.30
2023-04-18T11:09:12.607Z,2.50
2023-04-18T11:12:15.362Z,2.30
2023-04-18T11:15:23.279Z,2.70
2023-04-18T11:18:26.091Z,2.13
2023-04-18T11:21:30.798Z,2.22
2023-04-18T11:24:34.383Z,2.53
2023-04-18T11:27:37.024Z,2.22
2023-04-18T11:30:42.217Z,2.40
2023-04-18T11:33:47.881Z,2.50
2023-04-18T11:36:51.509Z,2.97
2023-04-18T11:39:54.321Z,2.72
2023-04-18T11:42:56.967Z,2.38
2023-04-18T11:45:59.955Z,2.33
2023-04-18T11:49:03.156Z,2.43
2023-04-18T11:52:13.749Z,2.35
2023-04-18T11:55:21.237Z,2.35
2023-04-18T11:58:31.996Z,2.47
2023-04-18T12:01:34.582Z,2.20
2023-04-18T12:05:00.642Z,2.57
2023-04-18T12:08:11.474Z,2.20
2023-04-18T12:11:22.017Z,2.70
2023-04-18T12:14:24.866Z,2.45
2023-04-18T12:17:28.677Z,2.40
2023-04-18T12:20:37.250Z,1.87
2023-04-18T12:23:42.879Z,2.22
2023-04-18T12:26:48.475Z,2.03
2023-04-18T12:29:51.309Z,2.42
2023-04-18T12:32:57.492Z,2.20
2023-04-18T12:36:00.813Z,2.20
2023-04-18T12:39:04.130Z,2.17
2023-04-18T12:42:06.717Z,2.20
2023-04-18T12:45:11.324Z,2.20
2023-04-18T12:48:14.381Z,2.50
2023-04-18T12:51:18.320Z,2.07
2023-04-18T12:54:22.129Z,1.92
2023-04-18T12:57:27.314Z,2.53
2023-04-18T13:00:31.729Z,2.20
2023-04-18T13:03:37.108Z,2.10
2023-04-18T13:06:40.648Z,1.87
2023-04-18T13:09:43.755Z,2.00
2023-04-18T13:12:47.122Z,2.10
2023-04-18T13:15:50.720Z,2.72
2023-04-18T13:18:53.464Z,2.92
2023-04-18T13:21:56.800Z,2.80
2023-04-18T13:24:59.644Z,3.28
2023-04-18T13:28:02.818Z,3.25
2023-04-18T13:31:07.845Z,3.50
2023-04-18T13:34:11.828Z,3.30
2023-04-18T13:37:15.302Z,3.00
2023-04-18T13:40:18.209Z,3.70
2023-04-18T13:43:21.105Z,3.55
2023-04-18T13:46:24.138Z,3.38
2023-04-18T13:49:27.091Z,3.50
2023-04-18T13:52:29.685Z,3.90
2023-04-18T13:55:32.666Z,2.70
2023-04-18T13:58:35.917Z,3.67
2023-04-18T14:01:38.897Z,4.13
2023-04-18T14:04:41.619Z,2.67
2023-04-18T14:07:44.622Z,2.97
2023-04-18T14:10:47.230Z,3.35
2023-04-18T14:13:49.902Z,3.63
2023-04-18T14:16:53.765Z,2.67
2023-04-18T14:19:56.348Z,2.95
2023-04-18T14:22:58.865Z,3.37
2023-04-18T14:26:01.619Z,2.53
2023-04-18T14:29:05.200Z,2.78
2023-04-18T14:32:07.942Z,3.10
2023-04-18T14:35:10.813Z,3.22
2023-04-18T14:38:13.310Z,3.30
2023-04-18T14:41:16.600Z,2.83
2023-04-18T14:44:19.273Z,2.97
2023-04-18T14:47:24.336Z,3.03
2023-04-18T14:50:27.631Z,2.90
2023-04-18T14:53:30.535Z,2.70
2023-04-18T14:56:33.192Z,3.10
2023-04-18T14:59:35.712Z,2.53
2023-04-18T15:02:42.168Z,3.10
2023-04-18T15:05:46.805Z,3.10
2023-04-18T15:08:49.449Z,2.53
2023-04-18T15:11:52.188Z,2.63
2023-04-18T15:14:54.797Z,2.35
2023-04-18T15:17:58.067Z,2.42
2023-04-18T15:21:00.688Z,2.40
2023-04-18T15:24:03.635Z,2.50
2023-04-18T15:27:06.975Z,2.40
2023-04-18T15:30:13.281Z,2.63
2023-04-18T15:33:17.559Z,2.70
2023-04-18T15:36:20.157Z,2.58
2023-04-18T15:39:24.103Z,2.70
2023-04-18T15:42:28.116Z,2.80
2023-04-18T15:45:30.947Z,2.55
2023-04-18T15:48:34.898Z,2.75
2023-04-18T15:51:37.406Z,2.65
2023-04-18T15:54:43.036Z,2.40
2023-04-18T15:57:46.493Z,2.40
2023-04-18T16:00:52.303Z,2.33
2023-04-18T16:03:55.208Z,2.55
2023-04-18T16:06:58.011Z,2.58
2023-04-18T16:10:03.110Z,2.40
2023-04-18T16:13:06.803Z,2.20
2023-04-18T16:16:09.570Z,2.10
2023-04-18T16:19:12.644Z,1.95
2023-04-18T16:22:15.488Z,2.45
2023-04-18T16:25:19.047Z,2.60
2023-04-18T16:28:22.464Z,3.08
2023-04-18T16:31:25.145Z,2.25
2023-04-18T16:34:28.234Z,2.55
2023-04-18T16:37:30.824Z,2.35
2023-04-18T16:40:35.141Z,2.47
2023-04-18T16:43:38.081Z,2.85
2023-04-18T16:46:40.813Z,2.75
2023-04-18T16:49:44.965Z,2.50
2023-04-18T16:52:47.542Z,2.40
2023-04-18T16:55:50.595Z,1.97
2023-04-18T16:58:54.010Z,2.30
2023-04-18T17:01:56.680Z,2.45
2023-04-18T17:05:00.193Z,2.30
2023-04-18T17:08:03.964Z,2.60
2023-04-18T17:11:06.591Z,2.10
2023-04-18T17:14:09.301Z,2.40
2023-04-18T17:17:12.244Z,2.40
2023-04-18T17:20:16.110Z,2.38
2023-04-18T17:23:19.056Z,2.47
2023-04-18T17:26:25.126Z,2.20
2023-04-18T17:29:28.747Z,2.33
2023-04-18T17:32:32.731Z,2.10
2023-04-18T17:35:36.165Z,2.33
2023-04-18T17:38:40.723Z,2.00
2023-04-18T17:41:45.378Z,2.30
2023-04-18T17:44:50.429Z,1.90
2023-04-18T17:47:54.236Z,2.55
2023-04-18T17:50:57.904Z,2.00
2023-04-18T17:54:00.719Z,2.15
2023-04-18T17:57:04.456Z,2.27
2023-04-18T18:00:12.224Z,2.30
2023-04-18T18:03:19.813Z,2.00
2023-04-18T18:06:23.729Z,2.05
2023-04-18T18:09:27.908Z,2.25
2023-04-18T18:12:35.708Z,1.90
2023-04-18T18:15:39.156Z,1.95
2023-04-18T18:18:42.867Z,2.35
2023-04-18T18:21:47.569Z,2.20
2023-04-18T18:24:51.370Z,2.00
2023-04-18T18:27:55.194Z,2.20
2023-04-18T18:30:58.749Z,2.20
2023-04-18T18:34:02.543Z,2.10
2023-04-18T18:37:05.517Z,2.30
2023-04-18T18:40:10.542Z,2.05
2023-04-18T18:43:13.618Z,2.23
2023-04-18T18:46:17.647Z,2.33
2023-04-18T18:49:21.082Z,2.50
2023-04-18T18:52:24.891Z,2.20
2023-04-18T18:55:29.214Z,2.47
2023-04-18T18:58:32.548Z,2.17
2023-04-18T19:01:36.310Z,2.15
2023-04-18T19:04:41.319Z,2.00
2023-04-18T19:07:44.954Z,2.10
2023-04-18T19:10:50.368Z,1.95
2023-04-18T19:13:54.596Z,2.17
2023-04-18T19:16:58.777Z,2.17
2023-04-18T19:20:02.627Z,2.15
2023-04-18T19:23:05.799Z,2.80
2023-04-18T19:26:10.782Z,2.45
2023-04-18T19:29:14.972Z,2.07
2023-04-18T19:32:18.317Z,2.05
2023-04-18T19:35:21.532Z,2.15
2023-04-18T19:38:24.588Z,2.00
2023-04-18T19:41:29.628Z,2.30
2023-04-18T19:44:33.660Z,2.10
2023-04-18T19:47:37.504Z,2.17
2023-04-18T19:50:43.780Z,2.20
2023-04-18T19:53:47.061Z,2.00
2023-04-18T19:56:51.266Z,2.05
2023-04-18T19:59:54.456Z,2.03
2023-04-18T20:02:59.574Z,2.15
2023-04-18T20:06:05.984Z,1.98
2023-04-18T20:09:15.801Z,2.20
2023-04-18T20:12:23.183Z,2.00
2023-04-18T20:15:26.712Z,1.80
2023-04-18T20:18:32.125Z,1.88
2023-04-18T20:21:36.472Z,2.15
2023-04-18T20:24:39.987Z,1.95
2023-04-18T20:27:44.197Z,2.00
2023-04-18T20:30:48.622Z,2.10
2023-04-18T20:33:52.090Z,2.20
2023-04-18T20:36:58.116Z,2.28
2023-04-18T20:40:03.619Z,2.13
2023-04-18T20:43:11.569Z,2.47
2023-04-18T20:46:14.637Z,1.93
2023-04-18T20:49:17.787Z,2.00
2023-04-18T20:52:20.656Z,2.40
2023-04-18T20:55:23.308Z,2.15
2023-04-18T20:58:26.312Z,2.25
2023-04-18T21:01:29.320Z,2.00
2023-04-18T21:04:32.580Z,1.90
2023-04-18T21:07:36.358Z,1.90
2023-04-18T21:10:39.878Z,1.75
2023-04-18T21:13:42.901Z,2.25
2023-04-18T21:16:45.681Z,2.17
2023-04-18T21:19:49.482Z,1.80
2023-04-18T21:22:52.170Z,2.20
2023-04-18T21:25:54.747Z,1.80
2023-04-18T21:29:04.159Z,2.00
2023-04-18T21:32:06.825Z,1.80
2023-04-18T21:35:09.961Z,2.30
2023-04-18T21:38:12.479Z,2.20
2023-04-18T21:41:16.988Z,2.30
2023-04-18T21:44:19.767Z,2.20
2023-04-18T21:47:22.365Z,2.07
2023-04-18T21:50:25.064Z,1.80
2023-04-18T21:53:27.665Z,2.35
2023-04-18T21:56:30.299Z,2.47
2023-04-18T21:59:32.984Z,2.17
2023-04-18T22:02:35.886Z,2.37
2023-04-18T22:05:39.079Z,2.30
2023-04-18T22:08:42.245Z,2.03
2023-04-18T22:11:45.117Z,2.20
2023-04-18T22:14:48.609Z,2.20
2023-04-18T22:17:51.300Z,1.90
2023-04-18T22:20:54.910Z,1.90
2023-04-18T22:24:07.297Z,1.92
2023-04-18T22:27:09.830Z,2.00
2023-04-18T22:30:14.501Z,2.03
2023-04-18T22:33:17.285Z,1.83
2023-04-18T22:36:19.841Z,2.28
2023-04-18T22:39:22.786Z,1.92
2023-04-18T22:42:25.564Z,2.15
2023-04-18T22:45:28.184Z,1.90
2023-04-18T22:48:31.271Z,1.90
2023-04-18T22:51:34.348Z,2.17
2023-04-18T22:54:40.142Z,2.10
2023-04-18T22:57:42.797Z,2.20
2023-04-18T23:00:45.414Z,2.15
2023-04-18T23:03:48.815Z,1.80
2023-04-18T23:06:51.594Z,1.92
2023-04-18T23:09:54.401Z,2.28
2023-04-18T23:12:57.204Z,1.92
2023-04-18T23:15:59.828Z,2.00
2023-04-18T23:19:04.052Z,2.00
2023-04-18T23:22:06.707Z,2.00
2023-04-18T23:25:09.676Z,2.15
2023-04-18T23:28:13.711Z,2.00
2023-04-18T23:31:16.528Z,1.75
2023-04-18T23:34:19.270Z,2.17
2023-04-18T23:37:21.948Z,1.83
2023-04-18T23:40:24.805Z,2.20
2023-04-18T23:43:27.417Z,2.00
2023-04-18T23:46:30.008Z,1.70
2023-04-18T23:49:32.611Z,1.80
2023-04-18T23:52:35.564Z,2.10
2023-04-18T23:55:38.293Z,1.80
2023-04-18T23:58:41.033Z,2.10
